Time,TemperatureF,DewpointF,PressureIn,WindDirection,WindDirectionDegrees,WindSpeedMPH,WindSpeedGustMPH,Humidity,HourlyPrecipIn,Conditions,Clouds,dailyrainin,SoftwareType,DateUTC
2013-05-29 00:01:00,75.2,67.5,30.00,SSE,163,0.0,0.0,77,0.00,,,0.00,meteohub,2013-05-29 04:01:00,
2013-05-29 00:02:00,75.2,67.5,30.00,SSE,163,0.0,0.0,77,0.00,,,0.00,meteohub,2013-05-29 04:02:00,
2013-05-29 00:03:00,75.2,67.5,30.00,SSE,163,0.0,0.0,77,0.00,,,0.00,meteohub,2013-05-29 04:03:00,
2013-05-29 00:04:00,75.2,67.5,30.00,SSE,163,0.0,0.0,77,0.00,,,0.00,meteohub,2013-05-29 04:04:00,
2013-05-29 00:09:00,75.0,67.3,30.00,SSE,163,0.0,1.0,77,0.00,,,0.00,meteohub,2013-05-29 04:09:00,
2013-05-29 00:14:00,74.8,67.1,30.00,SSE,163,0.0,1.0,77,0.00,,,0.00,meteohub,2013-05-29 04:14:00,
2013-05-29 00:19:00,74.8,67.5,30.00,SSE,163,2.0,2.0,78,0.00,,,0.00,meteohub,2013-05-29 04:19:00,
2013-05-29 00:24:00,74.7,67.3,30.00,SSE,163,0.0,1.0,78,0.00,,,0.00,meteohub,2013-05-29 04:24:00,
2013-05-29 00:29:00,74.5,67.5,30.00,SSE,163,0.0,4.0,79,0.00,,,0.00,meteohub,2013-05-29 04:29:00,
2013-05-29 00:34:00,74.1,67.1,30.00,SSE,163,0.0,4.0,79,0.00,,,0.00,meteohub,2013-05-29 04:34:00,
2013-05-29 00:39:00,74.1,67.1,30.00,SSE,163,0.0,5.0,79,0.00,,,0.00,meteohub,2013-05-29 04:39:00,
2013-05-29 00:44:00,74.1,67.6,29.99,SSE,163,0.0,5.0,80,0.00,,,0.00,meteohub,2013-05-29 04:44:00,
2013-05-29 00:49:00,73.9,67.5,30.00,SSW,192,0.0,5.0,80,0.00,,,0.00,meteohub,2013-05-29 04:49:00,
2013-05-29 00:54:00,73.9,67.8,29.99,SSE,161,0.0,4.0,81,0.00,,,0.00,meteohub,2013-05-29 04:54:00,
2013-05-29 00:59:00,73.9,67.8,29.99,SSE,161,0.0,6.0,81,0.00,,,0.00,meteohub,2013-05-29 04:59:00,
2013-05-29 01:04:00,73.9,68.2,29.99,SSE,162,0.0,6.0,82,0.00,,,0.00,meteohub,2013-05-29 05:04:00,
2013-05-29 01:09:00,73.9,68.4,29.99,SSE,150,10.0,10.0,83,0.00,,,0.00,meteohub,2013-05-29 05:09:00,
2013-05-29 01:14:00,73.9,68.4,29.99,SSE,167,0.0,7.0,83,0.00,,,0.00,meteohub,2013-05-29 05:14:00,
2013-05-29 01:20:00,73.9,68.7,29.99,South,185,2.0,10.0,84,0.00,,,0.00,meteohub,2013-05-29 05:20:00,
2013-05-29 01:25:00,73.9,68.7,29.99,South,184,4.0,10.0,84,0.00,,,0.00,meteohub,2013-05-29 05:25:00,
2013-05-29 01:30:00,73.9,69.1,29.99,SSE,159,0.0,8.0,85,0.00,,,0.00,meteohub,2013-05-29 05:30:00,
2013-05-29 01:35:00,73.9,69.1,29.99,SSE,165,0.0,8.0,85,0.00,,,0.00,meteohub,2013-05-29 05:35:00,
2013-05-29 01:40:00,73.9,69.1,29.99,SSE,153,0.0,7.0,85,0.00,,,0.00,meteohub,2013-05-29 05:40:00,
2013-05-29 01:45:00,73.9,69.4,29.99,SSE,157,0.0,6.0,86,0.00,,,0.00,meteohub,2013-05-29 05:45:00,
2013-05-29 01:50:00,73.9,69.4,30.00,SSE,157,0.0,5.0,86,0.00,,,0.00,meteohub,2013-05-29 05:50:00,
2013-05-29 01:55:00,73.9,69.4,29.99,SSE,157,0.0,4.0,86,0.00,,,0.00,meteohub,2013-05-29 05:55:00,
2013-05-29 02:00:00,73.9,69.4,29.99,SSE,157,0.0,0.0,86,0.00,,,0.00,meteohub,2013-05-29 06:00:00,
2013-05-29 02:05:00,73.9,69.4,29.99,SSE,157,0.0,0.0,86,0.00,,,0.00,meteohub,2013-05-29 06:05:00,
2013-05-29 02:10:00,73.9,69.4,29.99,SSE,157,0.0,0.0,86,0.00,,,0.00,meteohub,2013-05-29 06:10:00,
2013-05-29 02:15:00,73.8,69.6,29.99,SSE,157,0.0,0.0,87,0.00,,,0.00,meteohub,2013-05-29 06:15:00,
2013-05-29 02:20:00,73.8,69.6,29.99,SSE,157,0.0,1.0,87,0.00,,,0.00,meteohub,2013-05-29 06:20:00,
2013-05-29 02:25:00,73.8,69.6,29.98,SSE,157,0.0,1.0,87,0.00,,,0.00,meteohub,2013-05-29 06:25:00,
2013-05-29 02:30:00,73.8,70.0,29.98,SSE,157,0.0,1.0,88,0.00,,,0.00,meteohub,2013-05-29 06:30:00,
2013-05-29 02:35:00,73.6,69.8,29.98,SSE,157,0.0,1.0,88,0.00,,,0.00,meteohub,2013-05-29 06:35:00,
2013-05-29 02:40:00,73.6,69.8,29.97,SSE,157,0.0,2.0,88,0.00,,,0.00,meteohub,2013-05-29 06:40:00,
2013-05-29 02:45:00,73.6,69.8,29.97,SSE,157,0.0,2.0,88,0.00,,,0.00,meteohub,2013-05-29 06:45:00,
2013-05-29 02:50:00,73.4,70.0,29.97,SSE,157,0.0,4.0,89,0.00,,,0.00,meteohub,2013-05-29 06:50:00,
2013-05-29 02:56:00,73.4,70.0,29.96,SSE,157,0.0,4.0,89,0.00,,,0.00,meteohub,2013-05-29 06:56:00,
2013-05-29 03:01:00,73.4,70.0,29.96,SSE,157,0.0,4.0,89,0.00,,,0.00,meteohub,2013-05-29 07:01:00,
2013-05-29 03:06:00,73.4,70.3,29.96,SSE,157,0.0,4.0,90,0.00,,,0.00,meteohub,2013-05-29 07:06:00,
2013-05-29 03:11:00,73.6,70.5,29.96,SSE,157,0.0,4.0,90,0.00,,,0.00,meteohub,2013-05-29 07:11:00,
2013-05-29 03:16:00,73.4,70.3,29.96,SSE,157,0.0,5.0,90,0.00,,,0.00,meteohub,2013-05-29 07:16:00,
2013-05-29 03:21:00,73.4,70.3,29.96,SSW,193,0.0,5.0,90,0.00,,,0.00,meteohub,2013-05-29 07:21:00,
2013-05-29 03:26:00,73.2,70.2,29.96,SSE,158,0.0,5.0,90,0.00,,,0.00,meteohub,2013-05-29 07:26:00,
2013-05-29 03:31:00,73.2,70.2,29.95,SSE,158,0.0,5.0,90,0.00,,,0.00,meteohub,2013-05-29 07:31:00,
2013-05-29 03:36:00,73.2,70.2,29.96,SSE,158,0.0,5.0,90,0.00,,,0.00,meteohub,2013-05-29 07:36:00,
2013-05-29 03:41:00,73.2,70.5,29.95,SSE,158,1.0,1.0,91,0.00,,,0.00,meteohub,2013-05-29 07:41:00,
2013-05-29 03:46:00,73.0,70.3,29.96,SSE,159,2.0,5.0,91,0.00,,,0.00,meteohub,2013-05-29 07:46:00,
2013-05-29 03:51:00,73.0,70.3,29.96,South,178,0.0,5.0,91,0.00,,,0.00,meteohub,2013-05-29 07:51:00,
2013-05-29 03:56:00,73.0,70.3,29.95,South,178,0.0,5.0,91,0.00,,,0.00,meteohub,2013-05-29 07:56:00,
2013-05-29 04:01:00,73.0,70.3,29.95,South,178,0.0,5.0,91,0.00,,,0.00,meteohub,2013-05-29 08:01:00,
2013-05-29 04:06:00,73.0,70.3,29.95,South,178,0.0,1.0,91,0.00,,,0.00,meteohub,2013-05-29 08:06:00,
2013-05-29 04:11:00,73.2,70.5,29.95,South,178,0.0,1.0,91,0.00,,,0.00,meteohub,2013-05-29 08:11:00,
2013-05-29 04:16:00,73.0,70.3,29.96,South,178,0.0,5.0,91,0.00,,,0.00,meteohub,2013-05-29 08:16:00,
2013-05-29 04:21:00,73.0,70.3,29.96,South,178,0.0,5.0,91,0.00,,,0.00,meteohub,2013-05-29 08:21:00,
2013-05-29 04:26:00,73.0,70.5,29.95,South,178,0.0,5.0,92,0.00,,,0.00,meteohub,2013-05-29 08:26:00,
2013-05-29 04:31:00,73.0,70.5,29.95,South,178,0.0,1.0,92,0.00,,,0.00,meteohub,2013-05-29 08:31:00,
2013-05-29 04:36:00,73.0,70.5,29.95,South,178,0.0,1.0,92,0.00,,,0.00,meteohub,2013-05-29 08:36:00,
2013-05-29 04:41:00,73.0,70.5,29.95,SSE,159,5.0,0.0,92,0.00,,,0.00,meteohub,2013-05-29 08:41:00,
2013-05-29 04:47:00,73.0,70.5,29.95,SSE,150,4.0,7.0,92,0.00,,,0.00,meteohub,2013-05-29 08:47:00,
2013-05-29 04:52:00,73.0,70.3,29.95,South,175,4.0,7.0,91,0.00,,,0.00,meteohub,2013-05-29 08:52:00,
2013-05-29 04:57:00,73.0,70.5,29.95,SSE,150,0.0,7.0,92,0.00,,,0.00,meteohub,2013-05-29 08:57:00,
2013-05-29 05:02:00,73.0,70.5,29.95,SSE,150,0.0,6.0,92,0.00,,,0.00,meteohub,2013-05-29 09:02:00,
2013-05-29 05:07:00,73.0,70.5,29.95,SSE,150,0.0,5.0,92,0.00,,,0.00,meteohub,2013-05-29 09:07:00,
2013-05-29 05:12:00,73.2,70.7,29.95,SSE,150,0.0,0.0,92,0.00,,,0.00,meteohub,2013-05-29 09:12:00,
2013-05-29 05:17:00,73.2,70.7,29.95,SSE,150,0.0,4.0,92,0.00,,,0.00,meteohub,2013-05-29 09:17:00,
2013-05-29 05:22:00,73.2,70.7,29.95,SSE,150,0.0,4.0,92,0.00,,,0.00,meteohub,2013-05-29 09:22:00,
2013-05-29 05:27:00,73.4,70.9,29.95,SSE,150,0.0,4.0,92,0.00,,,0.00,meteohub,2013-05-29 09:27:00,
2013-05-29 05:32:00,73.6,71.1,29.95,SSE,150,0.0,4.0,92,0.00,,,0.00,meteohub,2013-05-29 09:32:00,
2013-05-29 05:37:00,73.6,71.1,29.95,SSE,150,0.0,1.0,92,0.00,,,0.00,meteohub,2013-05-29 09:37:00,
2013-05-29 05:42:00,73.6,71.1,29.95,SSE,150,0.0,1.0,92,0.00,,,0.00,meteohub,2013-05-29 09:42:00,
2013-05-29 05:47:00,73.6,71.1,29.94,SSE,150,0.0,1.0,92,0.00,,,0.00,meteohub,2013-05-29 09:47:00,
2013-05-29 05:52:00,73.4,70.9,29.95,SSE,150,0.0,1.0,92,0.00,,,0.00,meteohub,2013-05-29 09:52:00,
2013-05-29 05:57:00,73.4,70.9,29.95,SSE,150,0.0,1.0,92,0.00,,,0.00,meteohub,2013-05-29 09:57:00,
2013-05-29 06:02:00,73.2,70.7,29.95,SSE,150,0.0,1.0,92,0.00,,,0.00,meteohub,2013-05-29 10:02:00,
2013-05-29 06:07:00,73.2,70.7,29.95,SSE,150,0.0,1.0,92,0.00,,,0.00,meteohub,2013-05-29 10:07:00,
2013-05-29 06:12:00,73.0,70.5,29.95,SSE,150,0.0,1.0,92,0.00,,,0.00,meteohub,2013-05-29 10:12:00,
2013-05-29 06:17:00,73.0,70.5,29.95,SSE,150,0.0,1.0,92,0.00,,,0.00,meteohub,2013-05-29 10:17:00,
2013-05-29 06:22:00,72.9,70.3,29.95,SSE,150,0.0,0.0,92,0.00,,,0.00,meteohub,2013-05-29 10:22:00,
2013-05-29 06:27:00,72.9,70.3,29.95,SSE,150,0.0,1.0,92,0.00,,,0.00,meteohub,2013-05-29 10:27:00,
2013-05-29 06:32:00,72.9,70.3,29.95,SSE,150,0.0,1.0,92,0.00,,,0.00,meteohub,2013-05-29 10:32:00,
2013-05-29 06:37:00,72.9,70.3,29.96,SSE,150,0.0,1.0,92,0.00,,,0.00,meteohub,2013-05-29 10:37:00,
2013-05-29 06:42:00,72.9,70.7,29.96,SSE,150,0.0,1.0,93,0.00,,,0.00,meteohub,2013-05-29 10:42:00,
2013-05-29 06:47:00,72.9,70.7,29.96,SSE,150,0.0,1.0,93,0.00,,,0.00,meteohub,2013-05-29 10:47:00,
2013-05-29 06:52:00,72.7,70.5,29.96,SSE,150,0.0,0.0,93,0.00,,,0.00,meteohub,2013-05-29 10:52:00,
2013-05-29 06:57:00,72.7,70.5,29.96,SSE,150,0.0,0.0,93,0.00,,,0.00,meteohub,2013-05-29 10:57:00,
2013-05-29 07:02:00,72.7,70.5,29.96,SSE,150,0.0,0.0,93,0.00,,,0.00,meteohub,2013-05-29 11:02:00,
2013-05-29 07:07:00,72.7,70.5,29.96,SSE,150,0.0,0.0,93,0.00,,,0.00,meteohub,2013-05-29 11:07:00,
2013-05-29 07:12:00,72.7,70.5,29.96,SSE,150,0.0,1.0,93,0.00,,,0.00,meteohub,2013-05-29 11:12:00,
2013-05-29 07:17:00,72.5,70.3,29.96,SSE,150,0.0,1.0,93,0.00,,,0.00,meteohub,2013-05-29 11:17:00,
2013-05-29 07:22:00,72.3,70.2,29.96,SSE,150,0.0,1.0,93,0.00,,,0.00,meteohub,2013-05-29 11:22:00,
2013-05-29 07:27:00,72.5,70.3,29.96,SSE,150,0.0,0.0,93,0.00,,,0.00,meteohub,2013-05-29 11:27:00,
2013-05-29 07:32:00,72.5,70.3,29.97,SSE,150,0.0,1.0,93,0.00,,,0.00,meteohub,2013-05-29 11:32:00,
2013-05-29 07:37:00,72.5,70.3,29.97,SSE,150,2.0,2.0,93,0.00,,,0.00,meteohub,2013-05-29 11:37:00,
2013-05-29 07:42:00,72.5,70.3,29.97,SSE,150,0.0,4.0,93,0.00,,,0.00,meteohub,2013-05-29 11:42:00,
2013-05-29 07:47:00,72.7,70.5,29.97,SSE,150,0.0,6.0,93,0.00,,,0.00,meteohub,2013-05-29 11:47:00,
2013-05-29 07:52:00,72.7,70.5,29.97,SE,136,0.0,7.0,93,0.00,,,0.00,meteohub,2013-05-29 11:52:00,
2013-05-29 07:57:00,72.9,70.7,29.97,SE,136,0.0,7.0,93,0.00,,,0.00,meteohub,2013-05-29 11:57:00,
2013-05-29 08:02:00,73.0,70.9,29.97,SE,136,0.0,7.0,93,0.01,,,0.01,meteohub,2013-05-29 12:02:00,
2013-05-29 08:07:00,73.0,70.9,29.97,SE,136,0.0,4.0,93,0.01,,,0.01,meteohub,2013-05-29 12:07:00,
2013-05-29 08:12:00,73.2,71.1,29.96,SSE,157,0.0,5.0,93,0.01,,,0.01,meteohub,2013-05-29 12:12:00,
2013-05-29 08:17:00,73.6,71.4,29.97,SE,134,4.0,5.0,93,0.01,,,0.01,meteohub,2013-05-29 12:17:00,
2013-05-29 08:22:00,73.8,71.6,29.97,SSE,147,2.0,8.0,93,0.01,,,0.01,meteohub,2013-05-29 12:22:00,
2013-05-29 08:27:00,74.1,72.0,29.97,SSE,159,0.0,8.0,93,0.01,,,0.01,meteohub,2013-05-29 12:27:00,
2013-05-29 08:32:00,74.7,72.5,29.97,SSE,163,0.0,8.0,93,0.01,,,0.01,meteohub,2013-05-29 12:32:00,
2013-05-29 08:37:00,75.0,72.5,29.97,SSE,166,0.0,5.0,92,0.01,,,0.01,meteohub,2013-05-29 12:37:00,
2013-05-29 08:42:00,75.6,72.7,29.97,SE,136,2.0,8.0,91,0.01,,,0.01,meteohub,2013-05-29 12:42:00,
2013-05-29 08:47:00,75.7,72.9,29.96,South,177,1.0,8.0,91,0.01,,,0.01,meteohub,2013-05-29 12:47:00,
2013-05-29 08:52:00,75.7,72.9,29.97,SSE,153,5.0,8.0,91,0.01,,,0.01,meteohub,2013-05-29 12:52:00,
2013-05-29 08:57:00,75.7,72.9,29.97,SSE,151,0.0,6.0,91,0.01,,,0.01,meteohub,2013-05-29 12:57:00,
2013-05-29 09:02:00,75.7,72.9,29.97,South,172,0.0,6.0,91,0.00,,,0.01,meteohub,2013-05-29 13:02:00,
2013-05-29 09:07:00,76.1,73.2,29.98,SE,136,1.0,6.0,91,0.00,,,0.01,meteohub,2013-05-29 13:07:00,
2013-05-29 09:12:00,76.6,73.8,29.97,SSE,155,2.0,8.0,91,0.00,,,0.01,meteohub,2013-05-29 13:12:00,
2013-05-29 09:17:00,77.2,73.9,29.97,South,171,6.0,9.0,90,0.00,,,0.01,meteohub,2013-05-29 13:17:00,
2013-05-29 09:22:00,77.5,74.1,29.97,SE,142,4.0,10.0,89,0.00,,,0.01,meteohub,2013-05-29 13:22:00,
2013-05-29 09:27:00,77.7,74.3,29.97,South,171,5.0,10.0,89,0.00,,,0.01,meteohub,2013-05-29 13:27:00,
2013-05-29 09:32:00,77.9,74.5,29.98,South,171,4.0,10.0,89,0.00,,,0.01,meteohub,2013-05-29 13:32:00,
2013-05-29 09:37:00,78.1,74.5,29.98,SSW,193,0.0,10.0,89,0.00,,,0.01,meteohub,2013-05-29 13:37:00,
2013-05-29 09:42:00,78.4,74.8,29.98,SSE,166,0.0,10.0,89,0.00,,,0.01,meteohub,2013-05-29 13:42:00,
2013-05-29 09:47:00,78.8,74.7,29.98,SSE,152,5.0,7.0,87,0.00,,,0.01,meteohub,2013-05-29 13:47:00,
2013-05-29 09:52:00,79.0,74.8,29.98,South,177,0.0,8.0,87,0.00,,,0.01,meteohub,2013-05-29 13:52:00,
2013-05-29 09:57:00,79.2,75.0,29.98,SE,145,0.0,8.0,87,0.00,,,0.01,meteohub,2013-05-29 13:57:00,
2013-05-29 10:02:00,79.2,74.7,29.98,SSE,163,4.0,11.0,86,0.00,,,0.01,meteohub,2013-05-29 14:02:00,
2013-05-29 10:07:00,79.2,74.7,29.98,SSE,164,6.0,11.0,86,0.00,,,0.01,meteohub,2013-05-29 14:07:00,
2013-05-29 10:12:00,79.3,74.8,29.98,SSE,164,2.0,11.0,86,0.00,,,0.01,meteohub,2013-05-29 14:12:00,
2013-05-29 10:17:00,79.3,74.5,29.98,SSE,159,6.0,14.0,85,0.00,,,0.01,meteohub,2013-05-29 14:17:00,
2013-05-29 10:22:00,79.7,74.5,29.98,SSE,165,4.0,14.0,84,0.00,,,0.01,meteohub,2013-05-29 14:22:00,
2013-05-29 10:27:00,80.2,74.7,29.99,SSE,155,6.0,14.0,83,0.00,,,0.01,meteohub,2013-05-29 14:27:00,
2013-05-29 10:32:00,80.8,75.6,29.98,SSE,165,5.0,14.0,84,0.00,,,0.01,meteohub,2013-05-29 14:32:00,
2013-05-29 10:37:00,81.0,75.0,29.98,SSE,150,5.0,14.0,82,0.00,,,0.01,meteohub,2013-05-29 14:37:00,
2013-05-29 10:42:00,81.3,75.4,29.99,South,170,6.0,14.0,82,0.00,,,0.01,meteohub,2013-05-29 14:42:00,
2013-05-29 10:47:00,81.7,75.6,29.98,SW,223,6.0,11.0,82,0.00,,,0.01,meteohub,2013-05-29 14:47:00,
2013-05-29 10:52:00,82.0,74.8,29.98,SSE,147,8.0,11.0,79,0.00,,,0.01,meteohub,2013-05-29 14:52:00,
2013-05-29 10:57:00,82.2,75.4,29.98,SSE,167,6.0,16.0,80,0.00,,,0.01,meteohub,2013-05-29 14:57:00,
2013-05-29 11:02:00,82.6,75.4,29.98,SSE,159,10.0,16.0,79,0.00,,,0.01,meteohub,2013-05-29 15:02:00,
2013-05-29 11:07:00,82.6,75.0,29.98,SSE,168,1.0,11.0,78,0.00,,,0.01,meteohub,2013-05-29 15:07:00,
2013-05-29 11:12:00,82.4,74.8,29.98,SSE,162,4.0,11.0,78,0.00,,,0.01,meteohub,2013-05-29 15:12:00,
2013-05-29 11:17:00,82.6,75.0,29.98,South,169,1.0,11.0,78,0.00,,,0.01,meteohub,2013-05-29 15:17:00,
2013-05-29 11:22:00,82.2,74.7,29.98,SSE,155,9.0,10.0,78,0.00,,,0.01,meteohub,2013-05-29 15:22:00,
2013-05-29 11:27:00,82.6,75.0,29.98,SSW,212,6.0,14.0,78,0.00,,,0.01,meteohub,2013-05-29 15:27:00,
2013-05-29 11:32:00,82.8,74.8,29.98,SSE,159,10.0,15.0,77,0.00,,,0.01,meteohub,2013-05-29 15:32:00,
2013-05-29 11:37:00,82.6,75.0,29.98,SSE,151,12.0,15.0,78,0.00,,,0.01,meteohub,2013-05-29 15:37:00,
2013-05-29 11:42:00,82.6,75.0,29.98,South,174,8.0,18.0,78,0.00,,,0.01,meteohub,2013-05-29 15:42:00,
2013-05-29 11:47:00,82.8,74.8,29.98,SSE,160,5.0,18.0,77,0.00,,,0.01,meteohub,2013-05-29 15:47:00,
2013-05-29 11:52:00,82.9,75.0,29.98,South,176,6.0,18.0,77,0.00,,,0.01,meteohub,2013-05-29 15:52:00,
2013-05-29 11:57:00,82.9,75.4,29.98,SSE,162,4.0,14.0,78,0.00,,,0.01,meteohub,2013-05-29 15:57:00,
2013-05-29 12:02:00,83.1,74.8,29.98,SSE,154,6.0,14.0,76,0.00,,,0.01,meteohub,2013-05-29 16:02:00,
2013-05-29 12:07:00,83.5,75.0,29.98,ESE,123,11.0,14.0,76,0.00,,,0.01,meteohub,2013-05-29 16:07:00,
2013-05-29 12:12:00,83.5,75.0,29.98,SSE,160,5.0,14.0,76,0.00,,,0.01,meteohub,2013-05-29 16:12:00,
2013-05-29 12:17:00,83.7,75.2,29.98,SE,143,7.0,14.0,76,0.00,,,0.01,meteohub,2013-05-29 16:17:00,
2013-05-29 12:22:00,83.5,75.0,29.98,SSE,160,10.0,18.0,76,0.00,,,0.01,meteohub,2013-05-29 16:22:00,
2013-05-29 12:27:00,83.5,75.0,29.98,SSW,196,5.0,18.0,76,0.00,,,0.01,meteohub,2013-05-29 16:27:00,
2013-05-29 12:32:00,83.5,74.7,29.98,SW,217,11.0,18.0,75,0.00,,,0.01,meteohub,2013-05-29 16:32:00,
2013-05-29 12:37:00,83.7,74.8,29.98,SW,224,6.0,15.0,75,0.00,,,0.01,meteohub,2013-05-29 16:37:00,
2013-05-29 12:42:00,83.7,74.8,29.98,SW,215,3.0,15.0,75,0.00,,,0.01,meteohub,2013-05-29 16:42:00,
2013-05-29 12:47:00,83.8,75.0,29.98,SSW,207,3.0,15.0,75,0.00,,,0.01,meteohub,2013-05-29 16:47:00,
2013-05-29 12:52:00,84.4,75.6,29.99,SE,142,9.0,13.0,75,0.00,,,0.01,meteohub,2013-05-29 16:52:00,
2013-05-29 12:57:00,84.6,76.1,29.99,SSE,159,5.0,13.0,76,0.00,,,0.01,meteohub,2013-05-29 16:57:00,
2013-05-29 13:02:00,84.4,75.9,29.98,South,173,5.0,13.0,76,0.00,,,0.01,meteohub,2013-05-29 17:02:00,
2013-05-29 13:07:00,83.8,75.4,29.98,South,173,7.0,14.0,76,0.00,,,0.01,meteohub,2013-05-29 17:07:00,
2013-05-29 13:12:00,83.1,75.2,29.98,SE,146,9.0,15.0,77,0.00,,,0.01,meteohub,2013-05-29 17:12:00,
2013-05-29 13:17:00,82.2,74.3,29.98,SSE,153,7.0,15.0,77,0.00,,,0.01,meteohub,2013-05-29 17:17:00,
2013-05-29 13:22:00,81.1,73.2,29.99,SSE,155,7.0,17.0,77,0.00,,,0.01,meteohub,2013-05-29 17:22:00,
2013-05-29 13:27:00,80.6,73.0,29.98,SE,146,2.0,17.0,78,0.00,,,0.01,meteohub,2013-05-29 17:27:00,
2013-05-29 13:32:00,80.1,73.0,29.99,South,169,7.0,17.0,79,0.00,,,0.01,meteohub,2013-05-29 17:32:00,
2013-05-29 13:37:00,79.5,73.2,29.99,SSE,161,10.0,14.0,81,0.00,,,0.01,meteohub,2013-05-29 17:37:00,
2013-05-29 13:42:00,79.0,73.0,29.99,SE,131,5.0,14.0,82,0.00,,,0.01,meteohub,2013-05-29 17:42:00,
2013-05-29 13:47:00,79.2,72.1,29.98,SSE,167,7.0,13.0,79,0.00,,,0.01,meteohub,2013-05-29 17:47:00,
2013-05-29 13:52:00,80.1,73.0,29.97,SSE,153,5.0,13.0,79,0.00,,,0.01,meteohub,2013-05-29 17:52:00,
2013-05-29 13:57:00,81.7,74.1,29.98,SSE,157,5.0,11.0,78,0.00,,,0.01,meteohub,2013-05-29 17:57:00,
2013-05-29 14:02:00,82.6,74.7,29.97,ESE,113,4.0,10.0,77,0.00,,,0.01,meteohub,2013-05-29 18:02:00,
2013-05-29 14:07:00,82.8,74.8,29.97,South,173,6.0,15.0,77,0.00,,,0.01,meteohub,2013-05-29 18:07:00,
2013-05-29 14:12:00,82.9,75.4,29.97,SE,138,7.0,16.0,78,0.00,,,0.01,meteohub,2013-05-29 18:12:00,
2013-05-29 14:17:00,82.9,75.4,29.96,ESE,116,8.0,16.0,78,0.00,,,0.01,meteohub,2013-05-29 18:17:00,
2013-05-29 14:22:00,82.8,75.6,29.96,SSE,154,4.0,18.0,79,0.00,,,0.01,meteohub,2013-05-29 18:22:00,
2013-05-29 14:27:00,82.9,75.7,29.96,South,175,7.0,18.0,79,0.00,,,0.01,meteohub,2013-05-29 18:27:00,
2013-05-29 14:32:00,82.8,75.6,29.96,SSE,165,4.0,15.0,79,0.00,,,0.01,meteohub,2013-05-29 18:32:00,
2013-05-29 14:37:00,82.9,75.7,29.96,SSE,149,0.0,14.0,79,0.00,,,0.01,meteohub,2013-05-29 18:37:00,
2013-05-29 14:42:00,83.1,75.9,29.96,SE,137,5.0,14.0,79,0.00,,,0.01,meteohub,2013-05-29 18:42:00,
2013-05-29 14:47:00,82.8,75.6,29.96,SSE,159,1.0,7.0,79,0.00,,,0.01,meteohub,2013-05-29 18:47:00,
2013-05-29 14:52:00,82.4,75.9,29.96,SSE,153,7.0,8.0,81,0.00,,,0.01,meteohub,2013-05-29 18:52:00,
2013-05-29 14:57:00,81.3,74.1,29.96,SE,133,5.0,11.0,79,0.00,,,0.01,meteohub,2013-05-29 18:57:00,
2013-05-29 15:02:00,80.8,73.6,29.96,SE,146,9.0,13.0,79,0.00,,,0.01,meteohub,2013-05-29 19:02:00,
2013-05-29 15:07:00,81.1,73.9,29.96,SSE,147,6.0,13.0,79,0.00,,,0.01,meteohub,2013-05-29 19:07:00,
2013-05-29 15:12:00,82.0,74.8,29.96,South,184,8.0,13.0,79,0.00,,,0.01,meteohub,2013-05-29 19:12:00,
2013-05-29 15:17:00,82.8,75.6,29.95,SSW,192,8.0,13.0,79,0.00,,,0.01,meteohub,2013-05-29 19:17:00,
2013-05-29 15:22:00,84.0,75.6,29.96,SE,143,2.0,20.0,76,0.00,,,0.01,meteohub,2013-05-29 19:22:00,
2013-05-29 15:27:00,85.3,76.5,29.95,South,179,4.0,20.0,75,0.00,,,0.01,meteohub,2013-05-29 19:27:00,
2013-05-29 15:32:00,84.9,75.7,29.95,SSE,150,7.0,20.0,74,0.00,,,0.01,meteohub,2013-05-29 19:32:00,
2013-05-29 15:37:00,85.3,76.5,29.95,ESE,113,5.0,16.0,75,0.00,,,0.01,meteohub,2013-05-29 19:37:00,
2013-05-29 15:42:00,85.5,77.0,29.95,SSE,165,0.0,16.0,76,0.00,,,0.01,meteohub,2013-05-29 19:42:00,
2013-05-29 15:47:00,85.3,76.1,29.94,SSE,152,4.0,12.0,74,0.00,,,0.01,meteohub,2013-05-29 19:47:00,
2013-05-29 15:52:00,84.7,76.3,29.94,SE,146,8.0,10.0,76,0.00,,,0.01,meteohub,2013-05-29 19:52:00,
2013-05-29 15:57:00,83.8,75.4,29.94,SE,142,6.0,14.0,76,0.00,,,0.01,meteohub,2013-05-29 19:57:00,
2013-05-29 16:02:00,82.6,75.0,29.95,SE,132,9.0,20.0,78,0.00,,,0.01,meteohub,2013-05-29 20:02:00,
2013-05-29 16:07:00,81.7,74.5,29.95,SE,138,4.0,20.0,79,0.00,,,0.01,meteohub,2013-05-29 20:07:00,
2013-05-29 16:13:00,81.1,74.7,29.95,SSE,152,4.0,20.0,81,0.00,,,0.01,meteohub,2013-05-29 20:13:00,
2013-05-29 16:18:00,81.1,74.7,29.94,SE,136,10.0,14.0,81,0.00,,,0.01,meteohub,2013-05-29 20:18:00,
2013-05-29 16:23:00,81.9,75.7,29.94,South,174,5.0,13.0,82,0.00,,,0.01,meteohub,2013-05-29 20:23:00,
2013-05-29 16:28:00,82.4,75.2,29.94,South,169,4.0,12.0,79,0.00,,,0.01,meteohub,2013-05-29 20:28:00,
2013-05-29 16:33:00,82.8,75.6,29.94,SSE,162,7.0,12.0,79,0.00,,,0.01,meteohub,2013-05-29 20:33:00,
2013-05-29 16:38:00,82.9,75.7,29.94,SE,144,7.0,11.0,79,0.00,,,0.01,meteohub,2013-05-29 20:38:00,
2013-05-29 16:43:00,82.8,75.9,29.94,SE,137,8.0,11.0,80,0.00,,,0.01,meteohub,2013-05-29 20:43:00,
2013-05-29 16:48:00,82.6,76.1,29.94,ESE,120,4.0,12.0,81,0.00,,,0.01,meteohub,2013-05-29 20:48:00,
2013-05-29 16:53:00,82.6,76.1,29.94,SE,138,9.0,13.0,81,0.00,,,0.01,meteohub,2013-05-29 20:53:00,
2013-05-29 16:58:00,82.2,75.4,29.94,SE,146,4.0,18.0,80,0.00,,,0.01,meteohub,2013-05-29 20:58:00,
2013-05-29 17:03:00,81.1,74.3,29.94,SSE,159,7.0,18.0,80,0.00,,,0.01,meteohub,2013-05-29 21:03:00,
2013-05-29 17:08:00,80.8,74.5,29.94,South,179,7.0,18.0,81,0.00,,,0.01,meteohub,2013-05-29 21:08:00,
2013-05-29 17:13:00,80.2,73.9,29.94,SSE,158,11.0,18.0,81,0.00,,,0.01,meteohub,2013-05-29 21:13:00,
2013-05-29 17:18:00,80.1,73.4,29.94,SSE,157,10.0,18.0,80,0.00,,,0.01,meteohub,2013-05-29 21:18:00,
2013-05-29 17:23:00,79.9,72.9,29.94,SSE,168,5.0,18.0,79,0.00,,,0.01,meteohub,2013-05-29 21:23:00,
2013-05-29 17:28:00,79.9,73.2,29.93,SSE,159,7.0,18.0,80,0.00,,,0.01,meteohub,2013-05-29 21:28:00,
2013-05-29 17:33:00,80.6,73.9,29.93,SE,126,12.0,18.0,80,0.00,,,0.01,meteohub,2013-05-29 21:33:00,
2013-05-29 17:38:00,81.0,74.1,29.93,SSE,153,7.0,15.0,80,0.00,,,0.01,meteohub,2013-05-29 21:38:00,
2013-05-29 17:43:00,80.8,73.9,29.93,SSE,161,7.0,14.0,80,0.00,,,0.01,meteohub,2013-05-29 21:43:00,
2013-05-29 17:49:00,81.0,74.7,29.93,SSE,163,8.0,19.0,81,0.00,,,0.01,meteohub,2013-05-29 21:49:00,
2013-05-29 17:54:00,81.1,74.3,29.93,SSE,154,10.0,19.0,80,0.00,,,0.01,meteohub,2013-05-29 21:54:00,
2013-05-29 17:59:00,81.0,74.7,29.93,South,184,9.0,19.0,81,0.00,,,0.01,meteohub,2013-05-29 21:59:00,
2013-05-29 18:04:00,81.1,74.7,29.93,SE,138,10.0,17.0,81,0.00,,,0.01,meteohub,2013-05-29 22:04:00,
2013-05-29 18:09:00,81.1,74.7,29.93,South,173,2.0,17.0,81,0.00,,,0.00,meteohub,2013-05-29 22:09:00,
2013-05-29 18:14:00,81.7,74.8,29.93,SE,142,0.0,15.0,80,0.00,,,0.00,meteohub,2013-05-29 22:14:00,
2013-05-29 18:19:00,81.9,75.0,29.93,South,178,4.0,15.0,80,0.00,,,0.00,meteohub,2013-05-29 22:19:00,
2013-05-29 18:24:00,82.2,74.7,29.92,SSE,164,14.0,14.0,78,0.00,,,0.00,meteohub,2013-05-29 22:24:00,
2013-05-29 18:29:00,82.2,74.7,29.92,SSE,151,7.0,16.0,78,0.00,,,0.00,meteohub,2013-05-29 22:29:00,
2013-05-29 18:34:00,82.2,74.3,29.92,SSW,201,4.0,17.0,77,0.00,,,0.00,meteohub,2013-05-29 22:34:00,
2013-05-29 18:39:00,82.2,74.7,29.92,SSE,148,7.0,17.0,78,0.00,,,0.00,meteohub,2013-05-29 22:39:00,
2013-05-29 18:44:00,82.2,74.7,29.91,SSE,159,7.0,17.0,78,0.00,,,0.00,meteohub,2013-05-29 22:44:00,
2013-05-29 18:49:00,82.0,74.5,29.91,SSE,165,5.0,17.0,78,0.00,,,0.00,meteohub,2013-05-29 22:49:00,
2013-05-29 18:54:00,82.2,75.0,29.91,SE,143,10.0,17.0,79,0.00,,,0.00,meteohub,2013-05-29 22:54:00,
2013-05-29 18:59:00,82.0,74.5,29.91,SE,134,16.0,16.0,78,0.00,,,0.00,meteohub,2013-05-29 22:59:00,
2013-05-29 19:04:00,81.9,74.7,29.91,SSE,165,10.0,16.0,79,0.00,,,0.00,meteohub,2013-05-29 23:04:00,
2013-05-29 19:09:00,81.9,75.0,29.91,SSE,148,7.0,19.0,80,0.00,,,0.00,meteohub,2013-05-29 23:09:00,
2013-05-29 19:14:00,81.5,74.3,29.91,SSE,157,13.0,19.0,79,0.00,,,0.00,meteohub,2013-05-29 23:14:00,
2013-05-29 19:19:00,81.3,74.5,29.91,SSE,159,5.0,19.0,80,0.00,,,0.00,meteohub,2013-05-29 23:19:00,
2013-05-29 19:24:00,81.3,74.1,29.91,SSW,194,7.0,19.0,79,0.00,,,0.00,meteohub,2013-05-29 23:24:00,
2013-05-29 19:30:00,81.1,73.9,29.91,South,173,6.0,19.0,79,0.00,,,0.00,meteohub,2013-05-29 23:30:00,
2013-05-29 19:35:00,81.3,74.1,29.91,South,183,3.0,18.0,79,0.00,,,0.00,meteohub,2013-05-29 23:35:00,
2013-05-29 19:40:00,81.7,74.1,29.91,South,171,6.0,18.0,78,0.00,,,0.00,meteohub,2013-05-29 23:40:00,
2013-05-29 19:45:00,81.1,73.2,29.91,SSE,163,6.0,17.0,77,0.00,,,0.00,meteohub,2013-05-29 23:45:00,
2013-05-29 19:50:00,81.1,73.6,29.91,South,177,5.0,16.0,78,0.00,,,0.00,meteohub,2013-05-29 23:50:00,
2013-05-29 19:55:00,81.0,73.0,29.92,South,170,4.0,20.0,77,0.00,,,0.00,meteohub,2013-05-29 23:55:00,
2013-05-29 20:00:00,81.0,72.0,29.92,South,175,7.0,20.0,74,0.00,,,0.00,meteohub,2013-05-30 00:00:00,
2013-05-29 20:05:00,80.8,71.8,29.91,SE,146,5.0,13.0,74,0.00,,,0.00,meteohub,2013-05-30 00:05:00,
2013-05-29 20:10:00,80.2,71.2,29.92,SSW,197,3.0,13.0,74,0.00,,,0.00,meteohub,2013-05-30 00:10:00,
2013-05-29 20:15:00,80.1,71.1,29.92,SE,142,5.0,12.0,74,0.00,,,0.00,meteohub,2013-05-30 00:15:00,
2013-05-29 20:20:00,79.9,70.9,29.92,SE,140,0.0,11.0,74,0.00,,,0.00,meteohub,2013-05-30 00:20:00,
2013-05-29 20:25:00,79.7,70.7,29.92,SSE,154,0.0,11.0,74,0.00,,,0.00,meteohub,2013-05-30 00:25:00,
2013-05-29 20:30:00,79.5,70.5,29.92,SSE,155,4.0,8.0,74,0.00,,,0.00,meteohub,2013-05-30 00:30:00,
2013-05-29 20:35:00,79.3,70.3,29.93,SSE,148,0.0,7.0,74,0.00,,,0.00,meteohub,2013-05-30 00:35:00,
2013-05-29 20:40:00,79.2,70.5,29.93,SSE,150,0.0,8.0,75,0.00,,,0.00,meteohub,2013-05-30 00:40:00,
2013-05-29 20:45:00,78.8,70.2,29.93,South,171,0.0,8.0,75,0.00,,,0.00,meteohub,2013-05-30 00:45:00,
2013-05-29 20:50:00,78.4,70.2,29.92,SE,136,0.0,8.0,76,0.00,,,0.00,meteohub,2013-05-30 00:50:00,
2013-05-29 20:55:00,78.4,70.2,29.92,South,170,0.0,7.0,76,0.00,,,0.00,meteohub,2013-05-30 00:55:00,
2013-05-29 21:00:00,78.3,70.5,29.92,SSE,150,6.0,7.0,77,0.00,,,0.00,meteohub,2013-05-30 01:00:00,
2013-05-29 21:05:00,78.1,70.7,29.92,ESE,123,6.0,9.0,78,0.00,,,0.00,meteohub,2013-05-30 01:05:00,
2013-05-29 21:11:00,77.7,70.3,29.92,SSE,157,5.0,9.0,78,0.00,,,0.00,meteohub,2013-05-30 01:11:00,
2013-05-29 21:16:00,77.5,70.5,29.92,SSE,148,0.0,9.0,79,0.00,,,0.00,meteohub,2013-05-30 01:16:00,
2013-05-29 21:21:00,77.4,70.7,29.93,SSE,156,4.0,8.0,80,0.00,,,0.00,meteohub,2013-05-30 01:21:00,
2013-05-29 21:26:00,77.2,70.9,29.93,SSE,163,0.0,7.0,81,0.00,,,0.00,meteohub,2013-05-30 01:26:00,
2013-05-29 21:31:00,77.2,70.9,29.93,SSE,163,0.0,7.0,81,0.00,,,0.00,meteohub,2013-05-30 01:31:00,
2013-05-29 21:36:00,77.0,71.1,29.93,SSE,156,0.0,5.0,82,0.00,,,0.00,meteohub,2013-05-30 01:36:00,
2013-05-29 21:41:00,76.6,70.7,29.93,SSE,151,0.0,6.0,82,0.00,,,0.00,meteohub,2013-05-30 01:41:00,
2013-05-29 21:46:00,76.6,70.7,29.93,SSE,151,0.0,6.0,82,0.00,,,0.00,meteohub,2013-05-30 01:46:00,
2013-05-29 21:51:00,76.5,70.9,29.93,SSE,167,5.0,6.0,83,0.00,,,0.00,meteohub,2013-05-30 01:51:00,
2013-05-29 21:56:00,76.5,71.2,29.93,SE,128,7.0,7.0,84,0.00,,,0.00,meteohub,2013-05-30 01:56:00,
2013-05-29 22:01:00,76.3,71.1,29.93,SE,146,0.0,7.0,84,0.00,,,0.00,meteohub,2013-05-30 02:01:00,
2013-05-29 22:06:00,76.3,71.4,29.93,SSE,153,0.0,7.0,85,0.00,,,0.00,meteohub,2013-05-30 02:06:00,
2013-05-29 22:11:00,76.3,71.4,29.94,SSE,153,0.0,7.0,85,0.00,,,0.00,meteohub,2013-05-30 02:11:00,
2013-05-29 22:16:00,76.3,71.4,29.93,SSE,153,5.0,5.0,85,0.00,,,0.00,meteohub,2013-05-30 02:16:00,
2013-05-29 22:21:00,76.3,71.4,29.93,SSE,156,0.0,7.0,85,0.00,,,0.00,meteohub,2013-05-30 02:21:00,
2013-05-29 22:26:00,76.3,71.8,29.93,SSE,159,1.0,7.0,86,0.00,,,0.00,meteohub,2013-05-30 02:26:00,
2013-05-29 22:31:00,76.3,71.4,29.93,SSE,159,1.0,7.0,85,0.00,,,0.00,meteohub,2013-05-30 02:31:00,
2013-05-29 22:36:00,75.9,71.4,29.94,SSE,159,0.0,6.0,86,0.00,,,0.00,meteohub,2013-05-30 02:36:00,
2013-05-29 22:42:00,75.9,71.4,29.94,SSE,159,0.0,6.0,86,0.00,,,0.00,meteohub,2013-05-30 02:42:00,
2013-05-29 22:47:00,75.9,71.8,29.93,SSE,165,1.0,6.0,87,0.00,,,0.00,meteohub,2013-05-30 02:47:00,
2013-05-29 22:52:00,75.9,71.8,29.94,SSE,167,0.0,6.0,87,0.00,,,0.00,meteohub,2013-05-30 02:52:00,
2013-05-29 22:57:00,75.9,71.8,29.94,SSE,166,0.0,6.0,87,0.00,,,0.00,meteohub,2013-05-30 02:57:00,
2013-05-29 23:02:00,75.9,71.8,29.94,SSE,166,2.0,6.0,87,0.00,,,0.00,meteohub,2013-05-30 03:02:00,
2013-05-29 23:07:00,75.9,71.8,29.94,South,169,0.0,4.0,87,0.00,,,0.00,meteohub,2013-05-30 03:07:00,
2013-05-29 23:12:00,75.7,72.0,29.94,SSE,168,0.0,5.0,88,0.00,,,0.00,meteohub,2013-05-30 03:12:00,
2013-05-29 23:17:00,75.7,72.0,29.94,SSE,168,0.0,5.0,88,0.00,,,0.00,meteohub,2013-05-30 03:17:00,
2013-05-29 23:22:00,75.7,72.0,29.94,SSE,168,0.0,5.0,88,0.00,,,0.00,meteohub,2013-05-30 03:22:00,
2013-05-29 23:27:00,75.7,72.0,29.94,SSE,154,0.0,5.0,88,0.00,,,0.00,meteohub,2013-05-30 03:27:00,
2013-05-29 23:32:00,75.7,72.3,29.94,SSE,155,0.0,5.0,89,0.00,,,0.00,meteohub,2013-05-30 03:32:00,
2013-05-29 23:37:00,75.7,72.3,29.94,South,173,0.0,6.0,89,0.00,,,0.00,meteohub,2013-05-30 03:37:00,
2013-05-29 23:42:00,75.7,72.3,29.94,SSE,151,0.0,6.0,89,0.00,,,0.00,meteohub,2013-05-30 03:42:00,
2013-05-29 23:47:00,75.6,72.1,29.94,South,169,0.0,6.0,89,0.00,,,0.00,meteohub,2013-05-30 03:47:00,
2013-05-29 23:52:00,75.6,72.5,29.94,SSE,159,0.0,5.0,90,0.00,,,0.00,meteohub,2013-05-30 03:52:00,
2013-05-29 23:57:00,75.6,72.5,29.94,SSE,160,0.0,7.0,90,0.00,,,0.00,meteohub,2013-05-30 03:57:00,